sensor_id;sensor_type;location;lat;lon;timestamp;pressure;altitude;pressure_sealevel;temperature;humidity
10806;BME280;5455;53.224;6.000;2023-04-30T00:00:01;102440.38;;;6.97;100.00
10806;BME280;5455;53.224;6.000;2023-04-30T00:02:35;102440.69;;;6.96;100.00
10806;BME280;5455;53.224;6.000;2023-04-30T00:05:03;102439.63;;;6.92;100.00
10806;BME280;5455;53.224;6.000;2023-04-30T00:07:30;102440.81;;;6.86;100.00
10806;BME280;5455;53.224;6.000;2023-04-30T00:09:57;102447.47;;;6.80;100.00
10806;BME280;5455;53.224;6.000;2023-04-30T00:12:24;102451.94;;;6.76;100.00
10806;BME280;5455;53.224;6.000;2023-04-30T00:14:51;102446.72;;;6.74;100.00
10806;BME280;5455;53.224;6.000;2023-04-30T00:17:18;102448.72;;;6.69;100.00
10806;BME280;5455;53.224;6.000;2023-04-30T00:19:45;102451.00;;;6.61;100.00
10806;BME280;5455;53.224;6.000;2023-04-30T00:22:12;102446.41;;;6.57;100.00
10806;BME280;5455;53.224;6.000;2023-04-30T00:24:39;102446.69;;;6.55;100.00
10806;BME280;5455;53.224;6.000;2023-04-30T00:27:06;102440.97;;;6.52;100.00
10806;BME280;5455;53.224;6.000;2023-04-30T00:29:33;102444.84;;;6.51;100.00
10806;BME280;5455;53.224;6.000;2023-04-30T00:32:00;102447.59;;;6.51;100.00
10806;BME280;5455;53.224;6.000;2023-04-30T00:34:27;102451.19;;;6.46;100.00
10806;BME280;5455;53.224;6.000;2023-04-30T00:36:54;102454.28;;;6.40;100.00
10806;BME280;5455;53.224;6.000;2023-04-30T00:39:21;102462.28;;;6.36;100.00
10806;BME280;5455;53.224;6.000;2023-04-30T00:41:48;102461.97;;;6.38;100.00
10806;BME280;5455;53.224;6.000;2023-04-30T00:44:15;102460.34;;;6.37;100.00
10806;BME280;5455;53.224;6.000;2023-04-30T00:46:42;102450.66;;;6.44;100.00
10806;BME280;5455;53.224;6.000;2023-04-30T00:49:09;102454.63;;;6.57;100.00
10806;BME280;5455;53.224;6.000;2023-04-30T00:51:39;102459.38;;;6.70;100.00
10806;BME280;5455;53.224;6.000;2023-04-30T00:54:08;102457.63;;;6.79;100.00
10806;BME280;5455;53.224;6.000;2023-04-30T00:56:35;102453.66;;;6.90;100.00
10806;BME280;5455;53.224;6.000;2023-04-30T00:59:02;102456.56;;;6.99;100.00
10806;BME280;5455;53.224;6.000;2023-04-30T01:01:29;102457.00;;;7.06;100.00
10806;BME280;5455;53.224;6.000;2023-04-30T01:03:56;102444.22;;;7.15;100.00
10806;BME280;5455;53.224;6.000;2023-04-30T01:06:24;102444.91;;;7.26;100.00
10806;BME280;5455;53.224;6.000;2023-04-30T01:08:53;102442.63;;;7.33;100.00
10806;BME280;5455;53.224;6.000;2023-04-30T01:14:27;102438.22;;;7.50;100.00
10806;BME280;5455;53.224;6.000;2023-04-30T01:17:05;102447.41;;;7.59;100.00
10806;BME280;5455;53.224;6.000;2023-04-30T01:19:39;102450.88;;;7.65;100.00
10806;BME280;5455;53.224;6.000;2023-04-30T01:30:30;102442.97;;;7.77;100.00
10806;BME280;5455;53.224;6.000;2023-04-30T01:32:58;102449.56;;;7.76;100.00
10806;BME280;5455;53.224;6.000;2023-04-30T01:35:52;102447.97;;;7.75;100.00
10806;BME280;5455;53.224;6.000;2023-04-30T01:46:34;102448.50;;;7.91;100.00
10806;BME280;5455;53.224;6.000;2023-04-30T01:51:42;102449.03;;;7.93;100.00
10806;BME280;5455;53.224;6.000;2023-04-30T01:54:24;102441.06;;;7.91;100.00
10806;BME280;5455;53.224;6.000;2023-04-30T01:59:30;102439.03;;;7.97;100.00
10806;BME280;5455;53.224;6.000;2023-04-30T02:01:59;102440.09;;;8.01;100.00
10806;BME280;5455;53.224;6.000;2023-04-30T02:04:26;102444.97;;;8.04;100.00
10806;BME280;5455;53.224;6.000;2023-04-30T02:06:53;102447.41;;;8.05;100.00
10806;BME280;5455;53.224;6.000;2023-04-30T02:09:20;102441.31;;;8.08;100.00
10806;BME280;5455;53.224;6.000;2023-04-30T02:11:50;102441.91;;;8.05;100.00
10806;BME280;5455;53.224;6.000;2023-04-30T02:14:17;102443.75;;;8.10;100.00
10806;BME280;5455;53.224;6.000;2023-04-30T02:16:44;102447.41;;;8.05;100.00
10806;BME280;5455;53.224;6.000;2023-04-30T02:19:11;102448.81;;;8.03;100.00
10806;BME280;5455;53.224;6.000;2023-04-30T02:21:38;102449.84;;;8.07;100.00
10806;BME280;5455;53.224;6.000;2023-04-30T02:24:05;102452.00;;;8.10;100.00
10806;BME280;5455;53.224;6.000;2023-04-30T02:26:33;102452.00;;;8.10;100.00
10806;BME280;5455;53.224;6.000;2023-04-30T02:29:00;102443.53;;;8.06;100.00
10806;BME280;5455;53.224;6.000;2023-04-30T02:31:27;102446.91;;;8.03;100.00
10806;BME280;5455;53.224;6.000;2023-04-30T02:33:55;102463.59;;;8.07;100.00
10806;BME280;5455;53.224;6.000;2023-04-30T02:36:22;102465.53;;;8.06;100.00
10806;BME280;5455;53.224;6.000;2023-04-30T02:38:49;102458.38;;;8.05;100.00
10806;BME280;5455;53.224;6.000;2023-04-30T02:41:16;102458.69;;;8.04;100.00
10806;BME280;5455;53.224;6.000;2023-04-30T02:43:43;102461.22;;;8.00;100.00
10806;BME280;5455;53.224;6.000;2023-04-30T02:46:10;102463.56;;;7.93;100.00
10806;BME280;5455;53.224;6.000;2023-04-30T02:48:37;102458.16;;;7.88;100.00
10806;BME280;5455;53.224;6.000;2023-04-30T02:51:04;102454.78;;;7.78;100.00
10806;BME280;5455;53.224;6.000;2023-04-30T02:53:31;102453.47;;;7.75;100.00
10806;BME280;5455;53.224;6.000;2023-04-30T02:55:58;102459.25;;;7.73;100.00
10806;BME280;5455;53.224;6.000;2023-04-30T02:58:25;102455.66;;;7.73;100.00
10806;BME280;5455;53.224;6.000;2023-04-30T03:00:52;102458.63;;;7.76;100.00
10806;BME280;5455;53.224;6.000;2023-04-30T03:03:20;102455.56;;;7.78;100.00
10806;BME280;5455;53.224;6.000;2023-04-30T03:05:47;102450.41;;;7.76;100.00
10806;BME280;5455;53.224;6.000;2023-04-30T03:08:15;102444.41;;;7.74;100.00
10806;BME280;5455;53.224;6.000;2023-04-30T03:10:42;102446.31;;;7.74;100.00
10806;BME280;5455;53.224;6.000;2023-04-30T03:13:09;102454.25;;;7.75;100.00
10806;BME280;5455;53.224;6.000;2023-04-30T03:15:36;102446.84;;;7.76;100.00
10806;BME280;5455;53.224;6.000;2023-04-30T03:18:03;102450.50;;;7.71;100.00
10806;BME280;5455;53.224;6.000;2023-04-30T03:20:30;102444.78;;;7.68;100.00
10806;BME280;5455;53.224;6.000;2023-04-30T03:22:57;102451.91;;;7.69;100.00
10806;BME280;5455;53.224;6.000;2023-04-30T03:25:24;102448.84;;;7.70;100.00
10806;BME280;5455;53.224;6.000;2023-04-30T03:27:51;102456.03;;;7.66;100.00
10806;BME280;5455;53.224;6.000;2023-04-30T03:30:18;102451.97;;;7.64;100.00
10806;BME280;5455;53.224;6.000;2023-04-30T03:32:45;102456.97;;;7.62;100.00
10806;BME280;5455;53.224;6.000;2023-04-30T03:35:12;102456.25;;;7.56;100.00
10806;BME280;5455;53.224;6.000;2023-04-30T03:37:39;102458.03;;;7.47;100.00
10806;BME280;5455;53.224;6.000;2023-04-30T03:40:07;102453.19;;;7.39;100.00
10806;BME280;5455;53.224;6.000;2023-04-30T03:42:34;102452.25;;;7.30;100.00
10806;BME280;5455;53.224;6.000;2023-04-30T03:45:01;102455.88;;;7.26;100.00
10806;BME280;5455;53.224;6.000;2023-04-30T03:47:28;102457.94;;;7.15;100.00
10806;BME280;5455;53.224;6.000;2023-04-30T03:49:55;102455.59;;;7.08;100.00
10806;BME280;5455;53.224;6.000;2023-04-30T03:52:22;102457.59;;;7.03;100.00
10806;BME280;5455;53.224;6.000;2023-04-30T03:54:50;102463.44;;;6.96;100.00
10806;BME280;5455;53.224;6.000;2023-04-30T03:57:18;102459.41;;;6.89;100.00
10806;BME280;5455;53.224;6.000;2023-04-30T03:59:46;102465.22;;;6.87;100.00
10806;BME280;5455;53.224;6.000;2023-04-30T04:02:14;102455.13;;;6.83;100.00
10806;BME280;5455;53.224;6.000;2023-04-30T04:04:41;102454.59;;;6.81;100.00
10806;BME280;5455;53.224;6.000;2023-04-30T04:07:08;102460.69;;;6.78;100.00
10806;BME280;5455;53.224;6.000;2023-04-30T04:09:37;102462.59;;;6.77;100.00
10806;BME280;5455;53.224;6.000;2023-04-30T04:12:04;102469.41;;;6.80;100.00
10806;BME280;5455;53.224;6.000;2023-04-30T04:14:32;102465.56;;;6.81;100.00
10806;BME280;5455;53.224;6.000;2023-04-30T04:16:59;102471.88;;;6.81;100.00
10806;BME280;5455;53.224;6.000;2023-04-30T04:19:27;102474.84;;;6.85;100.00
10806;BME280;5455;53.224;6.000;2023-04-30T04:21:56;102473.13;;;6.89;100.00
10806;BME280;5455;53.224;6.000;2023-04-30T04:24:24;102477.75;;;6.93;100.00
10806;BME280;5455;53.224;6.000;2023-04-30T04:26:52;102483.16;;;6.98;100.00
10806;BME280;5455;53.224;6.000;2023-04-30T04:29:19;102485.81;;;7.03;100.00
10806;BME280;5455;53.224;6.000;2023-04-30T04:31:46;102482.22;;;7.08;100.00
10806;BME280;5455;53.224;6.000;2023-04-30T04:34:15;102490.81;;;7.20;100.00
10806;BME280;5455;53.224;6.000;2023-04-30T04:36:42;102481.41;;;7.26;100.00
10806;BME280;5455;53.224;6.000;2023-04-30T04:39:09;102480.50;;;7.31;100.00
10806;BME280;5455;53.224;6.000;2023-04-30T04:41:37;102488.06;;;7.39;100.00
10806;BME280;5455;53.224;6.000;2023-04-30T04:44:05;102489.31;;;7.46;100.00
10806;BME280;5455;53.224;6.000;2023-04-30T04:46:34;102486.72;;;7.55;100.00
10806;BME280;5455;53.224;6.000;2023-04-30T04:49:01;102483.69;;;7.56;100.00
10806;BME280;5455;53.224;6.000;2023-04-30T04:51:28;102489.16;;;7.56;100.00
10806;BME280;5455;53.224;6.000;2023-04-30T04:53:55;102488.34;;;7.56;100.00
10806;BME280;5455;53.224;6.000;2023-04-30T04:56:23;102491.81;;;7.61;100.00
10806;BME280;5455;53.224;6.000;2023-04-30T04:58:50;102489.00;;;7.66;100.00
10806;BME280;5455;53.224;6.000;2023-04-30T05:01:17;102481.72;;;7.75;100.00
10806;BME280;5455;53.224;6.000;2023-04-30T05:03:45;102492.91;;;7.79;100.00
10806;BME280;5455;53.224;6.000;2023-04-30T05:06:13;102492.75;;;7.89;100.00
10806;BME280;5455;53.224;6.000;2023-04-30T05:08:41;102501.22;;;8.06;100.00
10806;BME280;5455;53.224;6.000;2023-04-30T05:11:08;102512.47;;;8.23;100.00
10806;BME280;5455;53.224;6.000;2023-04-30T05:13:35;102514.34;;;8.28;100.00
10806;BME280;5455;53.224;6.000;2023-04-30T05:16:02;102513.81;;;8.26;100.00
10806;BME280;5455;53.224;6.000;2023-04-30T05:18:29;102517.31;;;8.32;100.00
10806;BME280;5455;53.224;6.000;2023-04-30T05:20:56;102516.50;;;8.45;100.00
10806;BME280;5455;53.224;6.000;2023-04-30T05:23:23;102524.16;;;8.61;100.00
10806;BME280;5455;53.224;6.000;2023-04-30T05:25:51;102523.34;;;8.74;100.00
10806;BME280;5455;53.224;6.000;2023-04-30T05:28:18;102522.94;;;8.81;100.00
10806;BME280;5455;53.224;6.000;2023-04-30T05:30:45;102521.13;;;8.76;100.00
10806;BME280;5455;53.224;6.000;2023-04-30T05:33:12;102521.41;;;8.75;100.00
10806;BME280;5455;53.224;6.000;2023-04-30T05:35:39;102520.59;;;8.74;100.00
10806;BME280;5455;53.224;6.000;2023-04-30T05:38:06;102522.41;;;8.93;100.00
10806;BME280;5455;53.224;6.000;2023-04-30T05:40:33;102522.72;;;9.05;100.00
10806;BME280;5455;53.224;6.000;2023-04-30T05:43:00;102519.34;;;9.08;100.00
10806;BME280;5455;53.224;6.000;2023-04-30T05:45:27;102519.66;;;9.06;100.00
10806;BME280;5455;53.224;6.000;2023-04-30T05:47:54;102523.53;;;9.19;100.00
10806;BME280;5455;53.224;6.000;2023-04-30T05:50:21;102532.16;;;9.26;100.00
10806;BME280;5455;53.224;6.000;2023-04-30T05:52:48;102529.72;;;9.24;100.00
10806;BME280;5455;53.224;6.000;2023-04-30T05:55:15;102533.59;;;9.23;100.00
10806;BME280;5455;53.224;6.000;2023-04-30T05:57:42;102530.91;;;9.32;100.00
10806;BME280;5455;53.224;6.000;2023-04-30T06:00:09;102517.06;;;9.37;100.00
10806;BME280;5455;53.224;6.000;2023-04-30T06:02:39;102522.44;;;9.42;100.00
10806;BME280;5455;53.224;6.000;2023-04-30T06:05:07;102531.59;;;9.51;100.00
10806;BME280;5455;53.224;6.000;2023-04-30T06:07:34;102529.53;;;9.57;100.00
10806;BME280;5455;53.224;6.000;2023-04-30T06:10:02;102512.13;;;9.48;100.00
10806;BME280;5455;53.224;6.000;2023-04-30T06:12:30;102523.47;;;9.46;100.00
10806;BME280;5455;53.224;6.000;2023-04-30T06:14:57;102532.28;;;9.57;100.00
10806;BME280;5455;53.224;6.000;2023-04-30T06:17:24;102532.78;;;9.59;100.00
10806;BME280;5455;53.224;6.000;2023-04-30T06:19:51;102533.25;;;9.74;100.00
10806;BME280;5455;53.224;6.000;2023-04-30T06:22:18;102529.72;;;9.82;100.00
10806;BME280;5455;53.224;6.000;2023-04-30T06:24:46;102540.13;;;9.85;100.00
10806;BME280;5455;53.224;6.000;2023-04-30T06:27:13;102537.25;;;9.90;100.00
10806;BME280;5455;53.224;6.000;2023-04-30T06:29:40;102547.66;;;9.93;100.00
10806;BME280;5455;53.224;6.000;2023-04-30T06:32:07;102549.03;;;10.05;100.00
10806;BME280;5455;53.224;6.000;2023-04-30T06:34:34;102540.31;;;10.11;100.00
10806;BME280;5455;53.224;6.000;2023-04-30T06:37:02;102547.03;;;10.19;100.00
10806;BME280;5455;53.224;6.000;2023-04-30T06:39:31;102553.69;;;10.18;100.00
10806;BME280;5455;53.224;6.000;2023-04-30T06:41:58;102553.13;;;10.29;100.00
10806;BME280;5455;53.224;6.000;2023-04-30T06:44:27;102553.47;;;10.36;100.00
10806;BME280;5455;53.224;6.000;2023-04-30T06:46:54;102549.50;;;10.51;100.00
10806;BME280;5455;53.224;6.000;2023-04-30T06:49:21;102556.69;;;10.61;100.00
10806;BME280;5455;53.224;6.000;2023-04-30T06:51:48;102554.28;;;10.68;100.00
10806;BME280;5455;53.224;6.000;2023-04-30T06:54:15;102548.78;;;10.68;100.00
10806;BME280;5455;53.224;6.000;2023-04-30T06:56:42;102556.31;;;10.84;100.00
10806;BME280;5455;53.224;6.000;2023-04-30T06:59:10;102546.44;;;10.92;100.00
10806;BME280;5455;53.224;6.000;2023-04-30T07:01:38;102555.19;;;10.94;100.00
10806;BME280;5455;53.224;6.000;2023-04-30T07:04:05;102557.69;;;11.13;100.00
10806;BME280;5455;53.224;6.000;2023-04-30T07:06:32;102555.75;;;11.22;100.00
10806;BME280;5455;53.224;6.000;2023-04-30T07:08:59;102556.44;;;11.36;100.00
10806;BME280;5455;53.224;6.000;2023-04-30T07:11:26;102559.06;;;11.41;100.00
10806;BME280;5455;53.224;6.000;2023-04-30T07:13:54;102566.53;;;11.32;100.00
10806;BME280;5455;53.224;6.000;2023-04-30T07:16:24;102555.94;;;11.17;100.00
10806;BME280;5455;53.224;6.000;2023-04-30T07:18:53;102555.16;;;10.85;100.00
10806;BME280;5455;53.224;6.000;2023-04-30T07:21:20;102549.44;;;10.73;100.00
10806;BME280;5455;53.224;6.000;2023-04-30T07:23:47;102549.59;;;10.68;100.00
10806;BME280;5455;53.224;6.000;2023-04-30T07:26:17;102551.06;;;10.74;100.00
10806;BME280;5455;53.224;6.000;2023-04-30T07:28:47;102557.47;;;10.92;100.00
10806;BME280;5455;53.224;6.000;2023-04-30T07:31:15;102558.97;;;11.06;100.00
10806;BME280;5455;53.224;6.000;2023-04-30T07:33:42;102549.53;;;10.90;100.00
10806;BME280;5455;53.224;6.000;2023-04-30T07:36:09;102550.81;;;10.84;100.00
10806;BME280;5455;53.224;6.000;2023-04-30T07:38:37;102551.28;;;10.86;100.00
10806;BME280;5455;53.224;6.000;2023-04-30T07:41:04;102548.38;;;11.00;100.00
10806;BME280;5455;53.224;6.000;2023-04-30T07:43:31;102544.16;;;10.94;100.00
10806;BME280;5455;53.224;6.000;2023-04-30T07:45:58;102542.53;;;10.93;100.00
10806;BME280;5455;53.224;6.000;2023-04-30T07:48:25;102533.94;;;10.94;100.00
10806;BME280;5455;53.224;6.000;2023-04-30T07:50:52;102545.38;;;11.19;100.00
10806;BME280;5455;53.224;6.000;2023-04-30T07:53:19;102537.91;;;11.19;100.00
10806;BME280;5455;53.224;6.000;2023-04-30T07:55:46;102542.97;;;11.43;100.00
10806;BME280;5455;53.224;6.000;2023-04-30T07:58:13;102553.53;;;11.67;100.00
10806;BME280;5455;53.224;6.000;2023-04-30T08:00:40;102554.66;;;11.57;100.00
10806;BME280;5455;53.224;6.000;2023-04-30T08:03:07;102559.75;;;11.81;100.00
10806;BME280;5455;53.224;6.000;2023-04-30T08:05:35;102561.84;;;12.09;100.00
10806;BME280;5455;53.224;6.000;2023-04-30T08:08:02;102559.72;;;12.15;100.00
10806;BME280;5455;53.224;6.000;2023-04-30T08:10:30;102565.25;;;12.24;100.00
10806;BME280;5455;53.224;6.000;2023-04-30T08:12:57;102569.72;;;12.54;100.00
10806;BME280;5455;53.224;6.000;2023-04-30T08:15:25;102565.16;;;12.96;100.00
10806;BME280;5455;53.224;6.000;2023-04-30T08:17:52;102571.22;;;13.27;100.00
10806;BME280;5455;53.224;6.000;2023-04-30T08:20:19;102572.06;;;13.19;100.00
10806;BME280;5455;53.224;6.000;2023-04-30T08:22:49;102557.38;;;12.89;100.00
10806;BME280;5455;53.224;6.000;2023-04-30T08:25:16;102572.75;;;12.78;100.00
10806;BME280;5455;53.224;6.000;2023-04-30T08:27:44;102578.28;;;13.07;100.00
10806;BME280;5455;53.224;6.000;2023-04-30T08:30:11;102568.16;;;13.20;100.00
10806;BME280;5455;53.224;6.000;2023-04-30T08:32:39;102572.22;;;13.22;99.98
10806;BME280;5455;53.224;6.000;2023-04-30T08:35:06;102575.38;;;13.42;99.34
10806;BME280;5455;53.224;6.000;2023-04-30T08:37:34;102574.16;;;13.51;96.82
10806;BME280;5455;53.224;6.000;2023-04-30T08:40:01;102584.69;;;13.37;94.84
10806;BME280;5455;53.224;6.000;2023-04-30T08:42:31;102588.91;;;13.05;93.05
10806;BME280;5455;53.224;6.000;2023-04-30T08:45:02;102590.00;;;13.21;98.58
10806;BME280;5455;53.224;6.000;2023-04-30T08:47:31;102587.81;;;13.56;95.71
10806;BME280;5455;53.224;6.000;2023-04-30T08:49:58;102591.94;;;13.92;92.48
10806;BME280;5455;53.224;6.000;2023-04-30T08:52:27;102582.88;;;13.62;88.61
10806;BME280;5455;53.224;6.000;2023-04-30T08:54:56;102584.84;;;13.61;92.89
10806;BME280;5455;53.224;6.000;2023-04-30T08:57:24;102588.56;;;13.86;91.25
10806;BME280;5455;53.224;6.000;2023-04-30T08:59:52;102589.78;;;13.97;89.26
10806;BME280;5455;53.224;6.000;2023-04-30T09:02:20;102600.19;;;13.79;86.18
10806;BME280;5455;53.224;6.000;2023-04-30T09:04:48;102591.00;;;13.67;88.29
10806;BME280;5455;53.224;6.000;2023-04-30T09:07:16;102583.41;;;13.55;87.36
10806;BME280;5455;53.224;6.000;2023-04-30T09:09:44;102585.66;;;13.62;86.11
10806;BME280;5455;53.224;6.000;2023-04-30T09:15:05;102585.47;;;13.88;86.53
10806;BME280;5455;53.224;6.000;2023-04-30T09:17:33;102581.31;;;13.73;83.68
10806;BME280;5455;53.224;6.000;2023-04-30T09:20:10;102581.94;;;13.78;86.66
10806;BME280;5455;53.224;6.000;2023-04-30T09:22:39;102580.03;;;14.12;85.80
10806;BME280;5455;53.224;6.000;2023-04-30T09:25:08;102588.13;;;14.38;87.01
10806;BME280;5455;53.224;6.000;2023-04-30T09:27:35;102584.25;;;14.30;81.86
10806;BME280;5455;53.224;6.000;2023-04-30T09:30:02;102586.75;;;14.44;83.00
10806;BME280;5455;53.224;6.000;2023-04-30T09:32:30;102590.66;;;14.43;79.49
10806;BME280;5455;53.224;6.000;2023-04-30T09:34:57;102579.22;;;14.11;80.75
10806;BME280;5455;53.224;6.000;2023-04-30T09:37:37;102582.13;;;14.36;84.81
10806;BME280;5455;53.224;6.000;2023-04-30T09:40:05;102584.50;;;14.70;79.97
10806;BME280;5455;53.224;6.000;2023-04-30T09:42:32;102586.03;;;14.92;79.27
10806;BME280;5455;53.224;6.000;2023-04-30T09:44:59;102585.22;;;15.15;77.36
10806;BME280;5455;53.224;6.000;2023-04-30T09:47:28;102578.16;;;14.94;73.18
10806;BME280;5455;53.224;6.000;2023-04-30T09:49:58;102576.31;;;14.98;73.63
10806;BME280;5455;53.224;6.000;2023-04-30T09:52:26;102568.91;;;14.77;72.96
10806;BME280;5455;53.224;6.000;2023-04-30T09:54:53;102568.78;;;14.74;73.19
10806;BME280;5455;53.224;6.000;2023-04-30T09:57:22;102565.22;;;14.41;73.14
10806;BME280;5455;53.224;6.000;2023-04-30T09:59:51;102553.03;;;14.00;78.21
10806;BME280;5455;53.224;6.000;2023-04-30T10:02:19;102542.66;;;13.76;80.99
10806;BME280;5455;53.224;6.000;2023-04-30T10:04:55;102533.44;;;13.64;83.94
10806;BME280;5455;53.224;6.000;2023-04-30T10:07:30;102529.25;;;13.58;86.12
10806;BME280;5455;53.224;6.000;2023-04-30T10:10:07;102530.41;;;13.77;86.22
10806;BME280;5455;53.224;6.000;2023-04-30T10:12:51;102526.56;;;13.70;86.99
10806;BME280;5455;53.224;6.000;2023-04-30T10:15:24;102520.13;;;13.78;86.24
10806;BME280;5455;53.224;6.000;2023-04-30T10:18:16;102519.59;;;13.85;86.19
10806;BME280;5455;53.224;6.000;2023-04-30T10:20:46;102514.00;;;14.05;88.96
10806;BME280;5455;53.224;6.000;2023-04-30T10:23:16;102510.53;;;13.75;84.73
10806;BME280;5455;53.224;6.000;2023-04-30T10:25:43;102505.50;;;13.90;87.76
10806;BME280;5455;53.224;6.000;2023-04-30T10:28:10;102514.50;;;14.19;86.88
10806;BME280;5455;53.224;6.000;2023-04-30T10:30:38;102512.78;;;14.15;85.43
10806;BME280;5455;53.224;6.000;2023-04-30T10:33:27;102517.78;;;14.33;85.53
10806;BME280;5455;53.224;6.000;2023-04-30T10:35:59;102514.47;;;14.40;85.45
10806;BME280;5455;53.224;6.000;2023-04-30T10:38:29;102512.75;;;14.48;85.39
10806;BME280;5455;53.224;6.000;2023-04-30T10:40:59;102512.16;;;14.54;85.25
10806;BME280;5455;53.224;6.000;2023-04-30T10:43:30;102513.00;;;14.67;84.57
10806;BME280;5455;53.224;6.000;2023-04-30T10:45:57;102510.91;;;14.64;83.81
10806;BME280;5455;53.224;6.000;2023-04-30T10:48:25;102506.88;;;14.73;85.55
10806;BME280;5455;53.224;6.000;2023-04-30T10:50:58;102507.91;;;14.81;84.33
10806;BME280;5455;53.224;6.000;2023-04-30T10:53:29;102497.47;;;14.90;85.29
10806;BME280;5455;53.224;6.000;2023-04-30T10:56:03;102496.56;;;14.86;83.94
10806;BME280;5455;53.224;6.000;2023-04-30T10:58:37;102496.44;;;15.07;86.98
10806;BME280;5455;53.224;6.000;2023-04-30T11:03:35;102490.03;;;15.18;82.33
10806;BME280;5455;53.224;6.000;2023-04-30T11:06:13;102479.38;;;15.20;85.94
10806;BME280;5455;53.224;6.000;2023-04-30T11:08:44;102482.81;;;15.29;86.67
10806;BME280;5455;53.224;6.000;2023-04-30T11:11:17;102468.22;;;15.32;81.75
10806;BME280;5455;53.224;6.000;2023-04-30T11:13:58;102469.09;;;15.09;81.01
10806;BME280;5455;53.224;6.000;2023-04-30T11:16:29;102475.47;;;15.09;85.10
10806;BME280;5455;53.224;6.000;2023-04-30T11:19:09;102472.09;;;15.16;83.47
10806;BME280;5455;53.224;6.000;2023-04-30T11:24:48;102464.84;;;15.51;85.10
10806;BME280;5455;53.224;6.000;2023-04-30T11:27:23;102472.75;;;15.77;81.82
10806;BME280;5455;53.224;6.000;2023-04-30T11:29:51;102465.47;;;15.72;82.15
10806;BME280;5455;53.224;6.000;2023-04-30T11:32:20;102467.28;;;15.53;77.92
10806;BME280;5455;53.224;6.000;2023-04-30T11:34:48;102464.63;;;15.44;78.42
10806;BME280;5455;53.224;6.000;2023-04-30T11:40:00;102454.22;;;15.41;79.37
10806;BME280;5455;53.224;6.000;2023-04-30T11:42:29;102451.00;;;15.67;80.21
10806;BME280;5455;53.224;6.000;2023-04-30T11:47:40;102447.81;;;15.53;78.29
10806;BME280;5455;53.224;6.000;2023-04-30T11:50:09;102445.44;;;15.67;77.21
10806;BME280;5455;53.224;6.000;2023-04-30T11:52:38;102436.00;;;15.43;79.58
10806;BME280;5455;53.224;6.000;2023-04-30T11:55:16;102432.41;;;15.43;81.64
10806;BME280;5455;53.224;6.000;2023-04-30T11:57:45;102431.09;;;15.80;80.57
10806;BME280;5455;53.224;6.000;2023-04-30T12:02:44;102425.81;;;15.75;75.79
10806;BME280;5455;53.224;6.000;2023-04-30T12:05:13;102415.25;;;15.53;76.90
10806;BME280;5455;53.224;6.000;2023-04-30T12:07:49;102418.03;;;15.53;79.17
10806;BME280;5455;53.224;6.000;2023-04-30T12:10:20;102409.13;;;15.75;76.05
10806;BME280;5455;53.224;6.000;2023-04-30T12:12:48;102422.47;;;16.13;78.78
10806;BME280;5455;53.224;6.000;2023-04-30T12:15:20;102416.69;;;16.53;75.12
10806;BME280;5455;53.224;6.000;2023-04-30T12:17:57;102416.25;;;16.35;71.70
10806;BME280;5455;53.224;6.000;2023-04-30T12:20:26;102422.09;;;16.30;73.02
10806;BME280;5455;53.224;6.000;2023-04-30T12:22:55;102405.75;;;16.13;73.64
10806;BME280;5455;53.224;6.000;2023-04-30T12:25:23;102415.13;;;15.77;72.00
10806;BME280;5455;53.224;6.000;2023-04-30T12:27:51;102416.66;;;15.75;74.76
10806;BME280;5455;53.224;6.000;2023-04-30T12:30:23;102405.84;;;15.58;74.77
10806;BME280;5455;53.224;6.000;2023-04-30T12:32:52;102412.06;;;15.67;74.95
10806;BME280;5455;53.224;6.000;2023-04-30T12:35:21;102407.91;;;16.20;74.99
10806;BME280;5455;53.224;6.000;2023-04-30T12:37:50;102410.03;;;16.73;74.00
10806;BME280;5455;53.224;6.000;2023-04-30T12:40:19;102406.06;;;17.28;70.29
10806;BME280;5455;53.224;6.000;2023-04-30T12:42:46;102404.25;;;17.36;67.13
10806;BME280;5455;53.224;6.000;2023-04-30T12:48:14;102407.91;;;16.67;69.51
10806;BME280;5455;53.224;6.000;2023-04-30T12:50:41;102410.88;;;16.58;70.10
10806;BME280;5455;53.224;6.000;2023-04-30T12:53:09;102399.03;;;17.15;71.28
10806;BME280;5455;53.224;6.000;2023-04-30T12:55:36;102400.63;;;17.54;69.77
10806;BME280;5455;53.224;6.000;2023-04-30T12:58:07;102408.69;;;17.40;67.23
10806;BME280;5455;53.224;6.000;2023-04-30T13:00:45;102396.75;;;17.21;66.81
10806;BME280;5455;53.224;6.000;2023-04-30T13:03:13;102402.00;;;17.06;67.92
10806;BME280;5455;53.224;6.000;2023-04-30T13:05:41;102390.56;;;16.92;68.56
10806;BME280;5455;53.224;6.000;2023-04-30T13:08:08;102393.38;;;16.77;69.86
10806;BME280;5455;53.224;6.000;2023-04-30T13:10:35;102388.81;;;17.03;69.73
10806;BME280;5455;53.224;6.000;2023-04-30T13:13:02;102389.91;;;16.99;65.69
10806;BME280;5455;53.224;6.000;2023-04-30T13:15:29;102385.59;;;17.01;66.47
10806;BME280;5455;53.224;6.000;2023-04-30T13:17:56;102382.75;;;17.36;68.33
10806;BME280;5455;53.224;6.000;2023-04-30T13:20:23;102377.81;;;17.68;67.99
10806;BME280;5455;53.224;6.000;2023-04-30T13:22:51;102385.81;;;17.92;67.76
10806;BME280;5455;53.224;6.000;2023-04-30T13:25:18;102376.19;;;17.67;64.70
10806;BME280;5455;53.224;6.000;2023-04-30T13:27:45;102368.06;;;17.58;65.72
10806;BME280;5455;53.224;6.000;2023-04-30T13:30:12;102367.50;;;17.30;65.07
10806;BME280;5455;53.224;6.000;2023-04-30T13:32:40;102354.94;;;17.21;67.23
10806;BME280;5455;53.224;6.000;2023-04-30T13:35:08;102355.44;;;17.26;67.05
10806;BME280;5455;53.224;6.000;2023-04-30T13:37:36;102353.66;;;16.61;67.51
10806;BME280;5455;53.224;6.000;2023-04-30T13:40:07;102354.00;;;16.59;70.08
10806;BME280;5455;53.224;6.000;2023-04-30T13:42:38;102338.84;;;16.95;69.80
10806;BME280;5455;53.224;6.000;2023-04-30T13:45:05;102347.00;;;17.03;68.53
10806;BME280;5455;53.224;6.000;2023-04-30T13:47:33;102347.97;;;17.11;69.57